createdAt,value
2019-04-27T00:00:58.997Z,5.90
2019-04-27T00:03:45.034Z,5.80
2019-04-27T00:06:15.185Z,5.97
2019-04-27T00:08:53.531Z,6.53
2019-04-27T00:11:26.293Z,6.72
2019-04-27T00:13:55.289Z,7.00
2019-04-27T00:16:50.815Z,6.80
2019-04-27T00:19:46.981Z,8.38
2019-04-27T00:22:27.229Z,7.42
2019-04-27T00:24:56.313Z,7.65
2019-04-27T00:27:25.472Z,7.85
2019-04-27T00:29:54.540Z,8.07
2019-04-27T00:32:23.697Z,7.97
2019-04-27T00:34:53.293Z,7.87
2019-04-27T00:37:47.261Z,8.13
2019-04-27T00:40:44.737Z,8.03
2019-04-27T00:43:14.109Z,7.72
2019-04-27T00:45:43.742Z,7.95
2019-04-27T00:48:13.461Z,7.50
2019-04-27T00:50:43.868Z,8.35
2019-04-27T00:53:13.496Z,8.30
2019-04-27T00:56:05.491Z,8.35
2019-04-27T00:58:45.492Z,8.10
2019-04-27T01:01:29.210Z,7.90
2019-04-27T01:04:03.757Z,8.00
2019-04-27T01:06:33.622Z,8.10
2019-04-27T01:09:03.523Z,8.85
2019-04-27T01:11:33.277Z,8.38
2019-04-27T01:14:03.902Z,8.58
2019-04-27T01:16:33.094Z,8.60
2019-04-27T01:19:02.159Z,8.80
2019-04-27T01:21:31.240Z,8.33
2019-04-27T01:24:00.557Z,8.93
2019-04-27T01:26:47.820Z,9.30
2019-04-27T01:29:19.347Z,9.43
2019-04-27T01:31:48.739Z,9.55
2019-04-27T01:34:19.234Z,9.73
2019-04-27T01:36:49.298Z,10.63
2019-04-27T01:39:18.932Z,10.88
2019-04-27T01:41:49.157Z,10.80
2019-04-27T01:44:19.424Z,10.63
2019-04-27T01:46:48.775Z,11.20
2019-04-27T01:49:19.379Z,11.28
2019-04-27T01:51:49.251Z,11.43
2019-04-27T01:54:20.041Z,12.03
2019-04-27T01:56:49.342Z,12.07
2019-04-27T01:59:19.891Z,12.45
2019-04-27T02:02:08.762Z,12.40
2019-04-27T02:04:49.416Z,13.10
2019-04-27T02:07:19.177Z,13.58
2019-04-27T02:09:48.719Z,13.35
2019-04-27T02:12:19.181Z,12.60
2019-04-27T02:14:49.115Z,13.75
2019-04-27T02:17:18.788Z,13.43
2019-04-27T02:19:49.409Z,12.78
2019-04-27T02:22:18.837Z,13.53
2019-04-27T02:24:49.237Z,13.00
2019-04-27T02:27:20.437Z,12.07
2019-04-27T02:30:20.478Z,12.28
2019-04-27T02:33:09.814Z,12.05
2019-04-27T02:35:39.111Z,11.33
2019-04-27T02:38:10.046Z,11.50
2019-04-27T02:40:53.886Z,10.63
2019-04-27T02:43:29.372Z,10.65
2019-04-27T02:45:57.507Z,9.80
2019-04-27T02:48:26.513Z,8.90
2019-04-27T02:50:59.917Z,8.98
2019-04-27T02:53:49.821Z,9.53
2019-04-27T02:56:20.256Z,8.60
2019-04-27T02:58:49.781Z,8.90
2019-04-27T03:01:20.101Z,8.57
2019-04-27T03:03:50.491Z,9.08
2019-04-27T03:06:20.053Z,8.07
2019-04-27T03:08:52.919Z,8.38
2019-04-27T03:11:23.013Z,7.92
2019-04-27T03:14:20.486Z,7.22
2019-04-27T03:16:50.371Z,7.60
2019-04-27T03:19:34.125Z,7.75
2019-04-27T03:22:22.276Z,7.10
2019-04-27T03:25:16.564Z,6.80
2019-04-27T03:27:47.110Z,6.72
2019-04-27T03:30:16.578Z,6.00
2019-04-27T03:32:45.695Z,5.67
2019-04-27T03:35:14.754Z,5.70
2019-04-27T03:37:44.325Z,5.20
2019-04-27T03:40:13.973Z,5.35
2019-04-27T03:42:44.943Z,5.47
2019-04-27T03:45:14.117Z,5.40
2019-04-27T03:47:43.202Z,5.75
2019-04-27T03:50:15.195Z,5.60
2019-04-27T03:53:06.400Z,5.33
2019-04-27T03:55:42.208Z,5.28
2019-04-27T03:58:25.935Z,5.75
2019-04-27T04:00:54.993Z,6.15
2019-04-27T04:03:24.461Z,6.40
2019-04-27T04:05:53.513Z,6.75
2019-04-27T04:08:22.666Z,6.62
2019-04-27T04:10:56.469Z,6.67
2019-04-27T04:13:32.774Z,7.33
2019-04-27T04:16:11.758Z,7.17
2019-04-27T04:19:00.749Z,6.78
2019-04-27T04:21:29.942Z,7.00
2019-04-27T04:24:00.976Z,7.33
2019-04-27T04:26:32.835Z,7.10
2019-04-27T04:29:01.094Z,6.80
2019-04-27T04:31:33.090Z,6.83
2019-04-27T04:34:00.911Z,7.20
2019-04-27T04:36:30.304Z,7.28
2019-04-27T04:39:00.422Z,7.50
2019-04-27T04:41:55.301Z,7.87
2019-04-27T04:44:42.378Z,8.00
2019-04-27T04:47:33.611Z,7.97
2019-04-27T04:50:10.697Z,8.25
2019-04-27T04:52:33.551Z,9.10
2019-04-27T04:55:02.976Z,8.45
2019-04-27T04:57:32.090Z,8.70
2019-04-27T05:00:01.190Z,9.03
2019-04-27T05:02:30.317Z,9.35
2019-04-27T05:04:59.516Z,9.30
2019-04-27T05:07:29.731Z,9.73
2019-04-27T05:09:58.921Z,10.25
2019-04-27T05:12:28.793Z,10.72
2019-04-27T05:14:59.053Z,10.93
2019-04-27T05:17:29.641Z,10.75
2019-04-27T05:19:59.258Z,11.67
2019-04-27T05:22:29.611Z,11.03
2019-04-27T05:25:02.121Z,11.53
2019-04-27T05:27:31.846Z,12.05
2019-04-27T05:30:01.512Z,11.18
2019-04-27T05:32:30.581Z,12.30
2019-04-27T05:34:59.741Z,12.85
2019-04-27T05:37:31.583Z,11.88
2019-04-27T05:39:59.628Z,12.95
2019-04-27T05:42:28.757Z,12.88
2019-04-27T05:45:31.125Z,14.28
2019-04-27T05:48:05.785Z,14.10
2019-04-27T05:50:38.069Z,13.90
2019-04-27T05:53:05.651Z,14.57
2019-04-27T05:55:34.697Z,13.50
2019-04-27T05:58:03.777Z,14.40
2019-04-27T06:00:32.917Z,13.88
2019-04-27T06:03:02.010Z,14.10
2019-04-27T06:05:31.093Z,14.60
2019-04-27T06:08:00.168Z,14.20
2019-04-27T06:10:29.659Z,13.85
2019-04-27T06:12:59.842Z,14.05
2019-04-27T06:15:30.158Z,13.70
2019-04-27T06:17:59.697Z,12.65
2019-04-27T06:20:28.933Z,14.23
2019-04-27T06:22:58.881Z,13.55
2019-04-27T06:25:30.521Z,12.93
2019-04-27T06:27:59.328Z,12.98
2019-04-27T06:30:29.268Z,12.93
2019-04-27T06:32:59.446Z,12.58
2019-04-27T06:35:28.909Z,13.00
2019-04-27T06:37:58.618Z,13.03
2019-04-27T06:40:29.041Z,14.05
2019-04-27T06:42:59.600Z,14.47
2019-04-27T06:45:28.786Z,14.10
2019-04-27T06:47:59.584Z,14.33
2019-04-27T06:50:29.591Z,15.23
2019-04-27T06:52:59.117Z,15.97
2019-04-27T06:55:29.146Z,17.10
2019-04-27T06:57:58.922Z,17.62
2019-04-27T07:00:28.918Z,18.82
2019-04-27T07:02:59.675Z,18.60
2019-04-27T07:05:29.050Z,18.77
2019-04-27T07:07:59.060Z,17.95
2019-04-27T07:10:28.696Z,19.12
2019-04-27T07:12:59.566Z,18.82
2019-04-27T07:15:28.954Z,20.60
2019-04-27T07:17:58.590Z,20.85
2019-04-27T07:20:30.313Z,21.27
2019-04-27T07:22:59.523Z,19.98
2019-04-27T07:25:28.948Z,20.80
2019-04-27T07:27:59.222Z,20.12
2019-04-27T07:30:28.891Z,21.05
2019-04-27T07:32:58.708Z,18.98
2019-04-27T07:35:29.580Z,19.57
2019-04-27T07:37:58.967Z,19.40
2019-04-27T07:40:30.175Z,20.32
2019-04-27T07:43:05.670Z,20.02
2019-04-27T07:45:37.226Z,20.45
2019-04-27T07:48:06.302Z,21.05
2019-04-27T07:50:35.522Z,21.95
2019-04-27T07:53:04.602Z,22.02
2019-04-27T07:55:33.676Z,22.60
2019-04-27T07:58:05.054Z,22.62
2019-04-27T08:00:33.720Z,21.60
2019-04-27T08:03:02.786Z,23.20
2019-04-27T08:05:31.885Z,22.50
2019-04-27T08:08:00.993Z,22.17
2019-04-27T08:10:30.190Z,21.73
2019-04-27T08:12:59.839Z,21.70
2019-04-27T08:15:29.219Z,21.90
2019-04-27T08:17:59.207Z,22.85
2019-04-27T08:20:29.405Z,22.52
2019-04-27T08:22:59.850Z,23.40
2019-04-27T08:25:30.840Z,22.77
2019-04-27T08:28:05.869Z,22.33
2019-04-27T08:30:48.917Z,23.98
2019-04-27T08:33:19.042Z,23.47
2019-04-27T08:35:49.062Z,24.20
2019-04-27T08:38:19.051Z,22.95
2019-04-27T08:40:49.506Z,24.92
2019-04-27T08:43:19.119Z,22.75
2019-04-27T08:45:48.912Z,23.02
2019-04-27T08:48:31.463Z,23.90
2019-04-27T08:50:48.945Z,24.10
2019-04-27T08:53:18.627Z,24.18
2019-04-27T08:55:49.620Z,24.00
2019-04-27T08:58:21.091Z,24.32
2019-04-27T09:00:49.512Z,23.42
2019-04-27T09:03:19.378Z,24.07
2019-04-27T09:05:49.037Z,23.67
2019-04-27T09:08:42.351Z,23.92
2019-04-27T09:11:26.093Z,23.42
2019-04-27T09:14:11.617Z,22.05
2019-04-27T09:17:02.797Z,22.15
2019-04-27T09:19:39.254Z,20.57
2019-04-27T09:22:15.861Z,21.00
2019-04-27T09:24:39.709Z,19.40
2019-04-27T09:27:09.571Z,18.65
2019-04-27T09:29:39.501Z,16.00
2019-04-27T09:32:08.977Z,15.85
2019-04-27T09:34:38.250Z,18.15
2019-04-27T09:37:07.328Z,19.85
2019-04-27T09:39:36.400Z,18.40
2019-04-27T09:42:06.532Z,17.70
2019-04-27T09:44:37.056Z,15.23
2019-04-27T09:47:06.467Z,14.20
2019-04-27T09:49:36.671Z,13.98
2019-04-27T09:52:06.496Z,16.40
2019-04-27T09:54:36.506Z,13.90
2019-04-27T09:57:06.915Z,15.15
2019-04-27T09:59:37.726Z,15.75
2019-04-27T10:02:08.608Z,13.05
2019-04-27T10:04:37.963Z,14.23
2019-04-27T10:07:07.060Z,13.83
2019-04-27T10:09:36.825Z,12.90
2019-04-27T10:12:07.416Z,13.03
2019-04-27T10:14:36.834Z,13.65
2019-04-27T10:17:05.923Z,14.33
2019-04-27T10:19:36.595Z,14.85
2019-04-27T10:22:06.032Z,13.45
2019-04-27T10:24:35.829Z,14.18
2019-04-27T10:27:07.785Z,13.32
2019-04-27T10:29:36.541Z,14.75
2019-04-27T10:32:06.238Z,14.58
2019-04-27T10:34:35.678Z,14.73
2019-04-27T10:37:06.072Z,14.98
2019-04-27T10:39:36.104Z,14.03
2019-04-27T10:42:06.743Z,13.55
2019-04-27T10:44:36.264Z,17.60
2019-04-27T10:47:05.857Z,14.33
2019-04-27T10:49:35.309Z,13.78
2019-04-27T10:52:07.521Z,13.55
2019-04-27T10:54:36.775Z,13.85
2019-04-27T10:57:06.211Z,13.65
2019-04-27T10:59:36.075Z,13.00
2019-04-27T11:02:05.310Z,12.80
2019-04-27T11:04:53.427Z,12.33
2019-04-27T11:07:26.007Z,11.35
2019-04-27T11:09:55.214Z,12.68
2019-04-27T11:12:24.669Z,12.28
2019-04-27T11:14:53.826Z,12.45
2019-04-27T11:17:22.934Z,10.18
2019-04-27T11:19:52.082Z,10.10
2019-04-27T11:22:21.189Z,12.63
2019-04-27T11:24:50.273Z,11.65
2019-04-27T11:27:19.460Z,11.57
2019-04-27T11:29:48.629Z,10.80
2019-04-27T11:32:17.737Z,9.88
2019-04-27T11:35:21.401Z,9.73
2019-04-27T11:37:51.121Z,10.72
2019-04-27T11:40:21.351Z,11.43
2019-04-27T11:42:50.402Z,9.80
2019-04-27T11:45:19.863Z,9.13
2019-04-27T11:47:48.986Z,9.68
2019-04-27T11:50:19.144Z,9.00
2019-04-27T11:52:48.272Z,9.83
2019-04-27T11:55:17.791Z,10.50
2019-04-27T11:57:47.120Z,9.65
2019-04-27T12:00:20.417Z,9.98
2019-04-27T12:02:49.474Z,10.53
2019-04-27T12:05:18.753Z,11.35
2019-04-27T12:07:48.013Z,10.70
2019-04-27T12:10:18.073Z,9.55
2019-04-27T12:12:47.134Z,8.13
2019-04-27T12:15:17.231Z,7.05
2019-04-27T12:17:46.333Z,7.22
2019-04-27T12:20:17.853Z,8.78
2019-04-27T12:22:46.575Z,8.83
2019-04-27T12:25:16.614Z,8.55
2019-04-27T12:28:10.792Z,8.50
2019-04-27T12:30:57.529Z,8.78
2019-04-27T12:33:27.752Z,8.30
2019-04-27T12:35:57.066Z,8.68
2019-04-27T12:38:26.378Z,9.58
2019-04-27T12:40:57.231Z,8.50
2019-04-27T12:43:26.322Z,8.90
2019-04-27T12:45:55.957Z,8.90
2019-04-27T12:48:25.165Z,7.55
2019-04-27T12:50:54.265Z,7.55
2019-04-27T12:53:57.445Z,7.47
2019-04-27T12:56:45.890Z,10.25
2019-04-27T12:59:34.167Z,7.42
2019-04-27T13:02:03.438Z,7.77
2019-04-27T13:04:32.505Z,7.72
2019-04-27T13:07:01.589Z,7.15
2019-04-27T13:09:30.666Z,7.50
2019-04-27T13:11:59.705Z,7.53
2019-04-27T13:14:28.785Z,7.30
2019-04-27T13:16:57.828Z,6.70
2019-04-27T13:19:26.913Z,7.12
2019-04-27T13:21:56.004Z,7.20
2019-04-27T13:24:26.108Z,6.85
2019-04-27T13:26:56.028Z,7.07
2019-04-27T13:29:25.637Z,7.80
2019-04-27T13:31:55.721Z,7.80
2019-04-27T13:34:25.738Z,7.55
2019-04-27T13:36:56.131Z,7.95
2019-04-27T13:39:25.795Z,7.30
2019-04-27T13:41:56.308Z,8.05
2019-04-27T13:44:26.245Z,7.93
2019-04-27T13:47:13.486Z,7.47
2019-04-27T13:49:47.710Z,7.40
2019-04-27T13:52:19.599Z,7.13
2019-04-27T13:54:48.673Z,7.58
2019-04-27T13:57:18.415Z,7.30
2019-04-27T13:59:47.629Z,6.70
2019-04-27T14:02:16.753Z,6.85
2019-04-27T14:04:45.873Z,7.30
2019-04-27T14:07:14.949Z,7.10
2019-04-27T14:09:44.057Z,7.15
2019-04-27T14:12:21.305Z,6.65
2019-04-27T14:14:50.318Z,6.87
2019-04-27T14:17:19.545Z,6.40
2019-04-27T14:19:48.807Z,7.00
2019-04-27T14:22:18.270Z,7.10
2019-04-27T14:24:48.717Z,6.37
2019-04-27T14:27:19.236Z,5.70
2019-04-27T14:29:48.966Z,5.80
2019-04-27T14:32:18.750Z,5.50
2019-04-27T14:34:50.111Z,6.00
2019-04-27T14:37:18.769Z,5.40
2019-04-27T14:39:48.120Z,6.17
2019-04-27T14:42:19.000Z,5.60
2019-04-27T14:44:48.948Z,5.83
2019-04-27T14:47:18.803Z,5.55
2019-04-27T14:49:49.076Z,7.97
2019-04-27T14:52:18.873Z,6.30
2019-04-27T14:54:50.704Z,5.73
2019-04-27T14:57:20.442Z,5.62
2019-04-27T14:59:49.971Z,5.60
2019-04-27T15:02:19.388Z,5.33
2019-04-27T15:04:48.465Z,5.42
2019-04-27T15:07:17.545Z,5.15
2019-04-27T15:09:49.547Z,5.15
2019-04-27T15:12:18.694Z,5.72
2019-04-27T15:14:53.344Z,4.70
2019-04-27T15:17:25.581Z,4.90
2019-04-27T15:19:58.574Z,5.47
2019-04-27T15:22:30.610Z,4.80
2019-04-27T15:25:10.859Z,4.60
2019-04-27T15:27:37.540Z,4.08
2019-04-27T15:30:11.408Z,3.70
2019-04-27T15:33:00.380Z,4.03
2019-04-27T15:35:40.577Z,4.08
2019-04-27T15:38:14.080Z,4.30
2019-04-27T15:41:02.373Z,4.37
2019-04-27T15:43:34.057Z,4.30
2019-04-27T15:46:03.123Z,4.00
2019-04-27T15:48:34.027Z,3.90
2019-04-27T15:51:09.101Z,4.28
2019-04-27T15:53:34.718Z,4.50
2019-04-27T15:56:03.916Z,4.45
2019-04-27T15:58:33.378Z,4.47
2019-04-27T16:01:06.701Z,4.20
2019-04-27T16:03:33.898Z,4.22
2019-04-27T16:06:07.077Z,4.90
2019-04-27T16:08:38.254Z,4.22
2019-04-27T16:11:05.129Z,4.65
2019-04-27T16:13:34.253Z,4.65
2019-04-27T16:16:03.557Z,4.15
2019-04-27T16:18:32.773Z,4.72
2019-04-27T16:21:02.912Z,4.97
2019-04-27T16:23:33.683Z,4.50
2019-04-27T16:26:05.140Z,4.00
2019-04-27T16:28:34.482Z,4.17
2019-04-27T16:31:03.693Z,4.15
2019-04-27T16:33:32.899Z,4.77
2019-04-27T16:36:06.908Z,4.75
2019-04-27T16:38:52.009Z,4.50
2019-04-27T16:41:21.159Z,4.50
2019-04-27T16:43:50.290Z,4.25
2019-04-27T16:46:21.336Z,4.30
2019-04-27T16:48:50.341Z,4.90
2019-04-27T16:51:19.488Z,4.45
2019-04-27T16:53:48.872Z,4.25
2019-04-27T16:56:20.439Z,4.30
2019-04-27T16:58:56.274Z,4.10
2019-04-27T17:01:28.652Z,4.42
2019-04-27T17:03:59.357Z,4.00
2019-04-27T17:06:29.663Z,4.08
2019-04-27T17:09:05.422Z,4.80
2019-04-27T17:11:29.961Z,3.80
2019-04-27T17:14:11.763Z,4.40
2019-04-27T17:17:03.648Z,4.30
2019-04-27T17:19:38.820Z,4.30
2019-04-27T17:22:05.088Z,4.20
2019-04-27T17:24:41.855Z,4.60
2019-04-27T17:27:11.056Z,5.00
2019-04-27T17:29:40.162Z,4.87
2019-04-27T17:32:12.421Z,5.17
2019-04-27T17:34:42.020Z,4.78
2019-04-27T17:37:11.200Z,4.80
2019-04-27T17:39:43.160Z,5.05
2019-04-27T17:42:12.389Z,5.20
2019-04-27T17:44:41.640Z,4.70
2019-04-27T17:47:10.917Z,5.00
2019-04-27T17:49:40.001Z,4.70
2019-04-27T17:52:13.008Z,4.97
2019-04-27T17:54:40.843Z,5.37
2019-04-27T17:57:13.504Z,4.78
2019-04-27T17:59:41.870Z,4.97
2019-04-27T18:02:11.023Z,4.78
2019-04-27T18:04:41.010Z,4.67
2019-04-27T18:07:10.393Z,4.95
2019-04-27T18:09:43.298Z,5.03
2019-04-27T18:12:14.677Z,5.33
2019-04-27T18:14:41.397Z,5.67
2019-04-27T18:17:12.177Z,5.10
2019-04-27T18:19:49.321Z,5.80
2019-04-27T18:22:19.904Z,5.05
2019-04-27T18:25:14.213Z,5.12
2019-04-27T18:28:15.098Z,5.10
2019-04-27T18:31:01.318Z,4.55
2019-04-27T18:33:32.550Z,4.72
2019-04-27T18:36:05.450Z,5.97
2019-04-27T18:38:35.465Z,5.00
2019-04-27T18:41:08.047Z,4.80
2019-04-27T18:43:34.373Z,5.30
2019-04-27T18:46:03.498Z,6.23
2019-04-27T18:48:54.656Z,5.33
2019-04-27T18:51:31.657Z,5.85
2019-04-27T18:54:03.553Z,5.78
2019-04-27T18:56:33.477Z,6.67
2019-04-27T18:59:02.313Z,5.83
2019-04-27T19:01:31.390Z,5.47
2019-04-27T19:04:00.549Z,5.50
2019-04-27T19:06:29.764Z,6.08
2019-04-27T19:08:59.161Z,6.37
2019-04-27T19:11:29.078Z,5.87
2019-04-27T19:13:59.083Z,5.75
2019-04-27T19:16:29.157Z,5.70
2019-04-27T19:18:58.561Z,6.17
2019-04-27T19:21:28.863Z,5.70
2019-04-27T19:23:58.573Z,6.10
2019-04-27T19:26:45.762Z,6.50
2019-04-27T19:29:18.932Z,4.47
2019-04-27T19:31:58.546Z,2.98
2019-04-27T19:34:28.600Z,2.50
2019-04-27T19:36:59.217Z,2.72
2019-04-27T19:39:28.721Z,2.37
2019-04-27T19:42:03.480Z,2.30
2019-04-27T19:44:29.330Z,2.50
2019-04-27T19:47:00.199Z,2.33
2019-04-27T19:49:31.756Z,2.37
2019-04-27T19:52:00.414Z,2.35
2019-04-27T19:54:30.246Z,2.20
2019-04-27T19:56:59.757Z,2.12
2019-04-27T19:59:33.645Z,2.10
2019-04-27T20:02:08.642Z,2.30
2019-04-27T20:04:39.322Z,1.80
2019-04-27T20:07:10.400Z,1.80
2019-04-27T20:10:00.552Z,2.00
2019-04-27T20:12:31.349Z,1.92
2019-04-27T20:15:02.307Z,2.12
2019-04-27T20:17:32.225Z,2.10
2019-04-27T20:20:01.919Z,2.00
2019-04-27T20:22:31.076Z,1.72
2019-04-27T20:25:01.863Z,1.90
2019-04-27T20:27:45.343Z,1.77
2019-04-27T20:30:03.058Z,1.92
2019-04-27T20:32:32.605Z,2.00
2019-04-27T20:35:01.737Z,2.10
2019-04-27T20:37:31.407Z,1.72
2019-04-27T20:40:01.598Z,1.87
2019-04-27T20:42:31.554Z,2.17
2019-04-27T20:45:02.014Z,2.08
2019-04-27T20:47:32.273Z,1.98
2019-04-27T20:50:01.493Z,2.30
2019-04-27T20:52:49.930Z,1.90
2019-04-27T20:55:19.117Z,1.95
2019-04-27T20:57:58.786Z,1.95
2019-04-27T21:00:21.962Z,1.90
2019-04-27T21:03:19.197Z,2.70
2019-04-27T21:06:05.147Z,2.22
2019-04-27T21:08:35.843Z,2.12
2019-04-27T21:11:04.943Z,2.23
2019-04-27T21:13:33.999Z,2.00
2019-04-27T21:16:03.081Z,2.33
2019-04-27T21:18:32.169Z,2.00
2019-04-27T21:21:01.394Z,2.12
2019-04-27T21:23:31.231Z,2.00
2019-04-27T21:26:02.072Z,2.10
2019-04-27T21:28:32.161Z,2.45
2019-04-27T21:31:01.289Z,2.92
2019-04-27T21:33:31.797Z,2.27
2019-04-27T21:36:01.431Z,2.52
2019-04-27T21:38:30.705Z,2.52
2019-04-27T21:40:59.901Z,2.75
2019-04-27T21:43:29.034Z,2.40
2019-04-27T21:45:58.294Z,2.30
2019-04-27T21:48:27.417Z,2.40
2019-04-27T21:50:56.494Z,2.33
2019-04-27T21:53:53.671Z,2.22
2019-04-27T21:56:22.827Z,2.58
2019-04-27T21:58:51.950Z,2.33
2019-04-27T22:01:41.538Z,2.33
2019-04-27T22:04:11.385Z,3.10
2019-04-27T22:06:44.222Z,2.25
2019-04-27T22:09:15.085Z,2.17
2019-04-27T22:11:44.188Z,2.37
2019-04-27T22:14:13.265Z,2.40
2019-04-27T22:16:42.397Z,2.58
2019-04-27T22:19:12.106Z,2.60
2019-04-27T22:21:41.927Z,2.90
2019-04-27T22:24:22.945Z,3.10
2019-04-27T22:26:52.069Z,2.60
2019-04-27T22:29:22.183Z,2.83
2019-04-27T22:31:51.754Z,2.95
2019-04-27T22:34:21.766Z,2.40
2019-04-27T22:36:50.839Z,2.50
2019-04-27T22:39:42.124Z,2.30
2019-04-27T22:42:26.738Z,2.10
2019-04-27T22:45:18.562Z,2.75
2019-04-27T22:47:47.694Z,2.43
2019-04-27T22:50:17.083Z,2.20
2019-04-27T22:52:46.382Z,2.50
2019-04-27T22:55:15.479Z,2.47
2019-04-27T22:57:51.604Z,2.70
2019-04-27T23:00:38.597Z,2.67
2019-04-27T23:03:11.010Z,2.70
2019-04-27T23:05:40.517Z,2.50
2019-04-27T23:08:10.990Z,2.37
2019-04-27T23:10:40.102Z,3.47
2019-04-27T23:13:10.791Z,2.70
2019-04-27T23:15:43.667Z,3.20
2019-04-27T23:18:13.157Z,3.10
2019-04-27T23:20:42.558Z,3.10
2019-04-27T23:23:11.830Z,3.02
2019-04-27T23:25:42.676Z,2.87
2019-04-27T23:28:11.714Z,3.77
2019-04-27T23:31:12.022Z,3.30
2019-04-27T23:33:43.588Z,3.45
2019-04-27T23:36:12.670Z,3.20
2019-04-27T23:38:41.741Z,3.83
2019-04-27T23:41:11.600Z,3.50
2019-04-27T23:43:40.839Z,3.93
2019-04-27T23:46:11.507Z,3.58
2019-04-27T23:48:41.981Z,4.03
2019-04-27T23:51:39.642Z,3.77
2019-04-27T23:54:08.777Z,3.20
2019-04-27T23:56:37.754Z,4.58
2019-04-27T23:59:06.826Z,3.75
